Time;durP1;ratioP1;P1;durP2;ratioP2;P2;SDS_P1;SDS_P2;PMS_P1;PMS_P2;Temp;Humidity;BMP_temperature;BMP_pressure;BME280_temperature;BME280_humidity;BME280_pressure;Samples;Min_cycle;Max_cycle;Signal;HPM_P1;HPM_P2
2021/12/03 00:00:50;;;;;;;6.40;2.07;;;0.00;99.90;;;;;;5068952;28;20581;-76
2021/12/03 00:03:16;;;;;;;5.63;2.60;;;-0.10;99.90;;;;;;5071335;28;20199;-76
2021/12/03 00:05:42;;;;;;;11.07;2.50;;;-0.10;99.90;;;;;;5072228;28;20184;-75
2021/12/03 00:08:08;;;;;;;6.37;2.00;;;0.00;99.90;;;;;;5070575;28;20565;-75
2021/12/03 00:10:35;;;;;;;5.43;1.93;;;0.10;99.90;;;;;;5053241;28;20210;-76
2021/12/03 00:13:03;;;;;;;6.27;2.33;;;0.20;99.90;;;;;;5070729;28;20206;-75
2021/12/03 00:15:29;;;;;;;6.57;1.73;;;0.10;99.90;;;;;;5070678;28;20211;-74
2021/12/03 00:17:55;;;;;;;7.40;2.10;;;0.00;99.90;;;;;;5069917;28;20184;-73
2021/12/03 00:20:24;;;;;;;4.47;1.63;;;0.00;99.90;;;;;;5069023;28;20589;-77
2021/12/03 00:22:53;;;;;;;6.10;2.13;;;0.00;99.90;;;;;;5069130;28;20256;-78
2021/12/03 00:25:18;;;;;;;6.10;2.10;;;0.00;99.90;;;;;;5065333;28;20216;-75
2021/12/03 00:27:44;;;;;;;7.77;2.07;;;0.00;99.90;;;;;;5068904;28;20202;-78
2021/12/03 00:30:12;;;;;;;7.17;1.73;;;0.00;99.90;;;;;;5070235;28;20185;-76
2021/12/03 00:32:38;;;;;;;3.97;2.27;;;-0.10;99.90;;;;;;5069533;28;20273;-75
2021/12/03 00:35:05;;;;;;;8.77;3.43;;;-0.10;99.90;;;;;;5070320;28;20236;-76
2021/12/03 00:37:30;;;;;;;8.47;4.07;;;-0.10;99.90;;;;;;5070311;28;20265;-76
2021/12/03 00:39:57;;;;;;;20.37;6.13;;;-0.10;99.90;;;;;;5065448;28;20212;-77
2021/12/03 00:42:23;;;;;;;5.10;1.60;;;0.00;99.90;;;;;;5067758;28;20193;-77
2021/12/03 00:44:54;;;;;;;4.90;1.90;;;-0.10;99.90;;;;;;5071455;28;20200;-76
2021/12/03 00:47:20;;;;;;;10.70;2.17;;;-0.10;99.90;;;;;;5072950;28;20206;-75
2021/12/03 00:49:45;;;;;;;8.07;2.00;;;-0.10;99.90;;;;;;5057304;28;20202;-74
2021/12/03 00:52:11;;;;;;;8.47;2.67;;;-0.10;99.90;;;;;;5074181;28;20227;-74
2021/12/03 00:54:37;;;;;;;7.60;1.70;;;-0.20;99.90;;;;;;5073122;28;20230;-76
2021/12/03 00:57:04;;;;;;;5.90;1.63;;;-0.10;99.90;;;;;;5053561;28;20171;-75
2021/12/03 00:59:29;;;;;;;6.60;2.00;;;-0.10;99.90;;;;;;5061522;28;20202;-75
2021/12/03 01:01:55;;;;;;;6.93;2.00;;;-0.10;99.90;;;;;;5049418;28;20576;-74
2021/12/03 01:04:21;;;;;;;8.53;2.40;;;-0.10;99.90;;;;;;5049712;28;20213;-74
2021/12/03 01:06:47;;;;;;;3.37;2.10;;;-0.10;99.90;;;;;;5051464;28;20206;-75
2021/12/03 01:09:13;;;;;;;3.73;1.90;;;-0.10;99.90;;;;;;5047625;28;20178;-74
2021/12/03 01:11:39;;;;;;;5.53;1.80;;;-0.10;99.90;;;;;;5050416;28;20259;-74
2021/12/03 01:14:04;;;;;;;5.07;1.97;;;-0.10;99.90;;;;;;5049196;28;20265;-74
2021/12/03 01:16:31;;;;;;;5.77;2.10;;;0.00;99.90;;;;;;5069453;28;20254;-73
2021/12/03 01:18:57;;;;;;;9.20;2.20;;;0.00;99.90;;;;;;5073955;28;20239;-74
2021/12/03 01:21:23;;;;;;;5.07;1.70;;;-0.10;99.90;;;;;;5072426;28;20677;-74
2021/12/03 01:23:49;;;;;;;4.73;1.73;;;0.00;99.90;;;;;;5074184;28;20222;-73
2021/12/03 01:26:15;;;;;;;6.13;2.07;;;0.00;99.90;;;;;;5072585;28;20205;-74
2021/12/03 01:28:42;;;;;;;2.67;1.70;;;0.00;99.90;;;;;;5072015;28;20213;-74
2021/12/03 01:31:08;;;;;;;5.83;2.03;;;0.00;99.90;;;;;;5046494;28;20247;-74
2021/12/03 01:33:33;;;;;;;4.23;1.60;;;0.00;99.90;;;;;;5061029;28;20694;-73
2021/12/03 01:36:00;;;;;;;7.07;2.63;;;0.00;99.90;;;;;;5074149;28;20258;-73
2021/12/03 01:38:25;;;;;;;6.37;2.63;;;0.00;99.90;;;;;;5073071;28;20203;-74
2021/12/03 01:40:51;;;;;;;4.37;2.27;;;0.00;99.90;;;;;;5057308;28;20204;-74
2021/12/03 01:43:23;;;;;;;5.43;2.17;;;0.00;99.90;;;;;;5072179;28;20586;-74
2021/12/03 01:45:53;;;;;;;5.27;1.90;;;0.00;99.90;;;;;;5073339;28;20206;-74
2021/12/03 01:48:19;;;;;;;6.63;2.30;;;0.00;99.90;;;;;;5073250;28;20178;-74
2021/12/03 01:50:46;;;;;;;5.87;2.00;;;0.00;99.90;;;;;;5073697;28;20177;-73
2021/12/03 01:53:14;;;;;;;5.13;2.37;;;0.00;99.90;;;;;;5072037;28;20296;-73
2021/12/03 01:55:42;;;;;;;5.00;2.30;;;0.10;99.90;;;;;;5071881;28;20218;-74
2021/12/03 01:58:08;;;;;;;7.37;2.30;;;0.10;99.90;;;;;;5071768;28;20288;-73
2021/12/03 02:00:51;;;;;;;7.73;2.20;;;0.10;99.90;;;;;;5070579;28;20708;-73
2021/12/03 02:03:18;;;;;;;9.07;2.43;;;0.10;99.90;;;;;;5070602;28;20200;-73
2021/12/03 02:05:44;;;;;;;5.70;2.37;;;0.10;99.90;;;;;;5072807;28;20194;-73
2021/12/03 02:08:10;;;;;;;5.10;2.50;;;0.20;99.90;;;;;;5071523;28;20208;-72
2021/12/03 02:10:36;;;;;;;6.07;2.40;;;0.20;99.90;;;;;;5056632;28;20205;-72
2021/12/03 02:13:02;;;;;;;9.27;2.60;;;0.20;99.90;;;;;;5072846;28;20238;-73
2021/12/03 02:15:27;;;;;;;5.03;2.63;;;0.10;99.90;;;;;;5072697;28;20228;-73
2021/12/03 02:17:54;;;;;;;5.93;2.87;;;0.20;99.90;;;;;;5072950;28;20656;-74
2021/12/03 02:20:20;;;;;;;6.53;2.73;;;0.20;99.90;;;;;;5073025;28;20210;-73
2021/12/03 02:22:46;;;;;;;4.77;2.60;;;0.30;99.90;;;;;;5064268;28;20213;-74
2021/12/03 02:25:19;;;;;;;10.20;2.67;;;0.40;99.90;;;;;;5072453;28;20209;-73
2021/12/03 02:27:46;;;;;;;5.87;2.90;;;0.40;99.90;;;;;;5072390;28;20292;-73
2021/12/03 02:30:12;;;;;;;8.00;2.83;;;0.40;99.90;;;;;;5071279;28;20262;-73
2021/12/03 02:32:37;;;;;;;6.53;2.60;;;0.40;99.90;;;;;;5072729;28;20318;-73
2021/12/03 02:35:04;;;;;;;7.20;2.33;;;0.30;99.90;;;;;;5071213;28;20215;-73
2021/12/03 02:37:29;;;;;;;6.50;2.73;;;0.30;99.90;;;;;;5072062;28;20285;-73
2021/12/03 02:39:55;;;;;;;6.97;2.60;;;0.30;99.90;;;;;;5062587;28;20231;-74
2021/12/03 02:42:20;;;;;;;8.37;3.13;;;0.40;99.90;;;;;;5064042;28;20171;-75
2021/12/03 02:44:46;;;;;;;7.87;2.30;;;0.30;99.90;;;;;;5056033;28;20572;-73
2021/12/03 02:47:12;;;;;;;5.93;2.60;;;0.40;99.90;;;;;;5072132;28;20262;-73
2021/12/03 02:49:39;;;;;;;3.77;2.00;;;0.40;99.90;;;;;;5071596;28;20206;-73
2021/12/03 02:52:06;;;;;;;6.90;2.27;;;0.40;99.90;;;;;;5071939;28;20296;-73
2021/12/03 02:54:31;;;;;;;6.60;2.33;;;0.50;99.90;;;;;;5071444;28;20228;-73
2021/12/03 02:56:57;;;;;;;4.37;2.13;;;0.60;99.90;;;;;;5072255;28;20173;-73
2021/12/03 02:59:22;;;;;;;7.53;2.40;;;0.60;99.90;;;;;;5071414;28;20556;-74
2021/12/03 03:01:48;;;;;;;4.93;2.13;;;0.60;99.90;;;;;;5065752;28;20199;-74
2021/12/03 03:04:13;;;;;;;6.57;2.60;;;0.60;99.90;;;;;;5070435;28;20218;-74
2021/12/03 03:06:39;;;;;;;9.97;2.67;;;0.60;99.90;;;;;;5071331;28;20213;-74
2021/12/03 03:09:08;;;;;;;8.07;2.60;;;0.50;99.90;;;;;;5071700;28;20256;-74
2021/12/03 03:11:34;;;;;;;6.27;2.27;;;0.50;99.90;;;;;;5054119;28;20221;-74
2021/12/03 03:13:59;;;;;;;6.13;2.70;;;0.50;99.90;;;;;;5071505;28;20264;-74
2021/12/03 03:16:26;;;;;;;5.07;2.30;;;0.50;99.90;;;;;;5071418;28;20671;-73
2021/12/03 03:18:51;;;;;;;7.70;2.37;;;0.50;99.90;;;;;;5071123;28;20201;-73
2021/12/03 03:21:17;;;;;;;4.23;2.00;;;0.50;99.90;;;;;;5070148;28;20176;-73
2021/12/03 03:23:43;;;;;;;4.07;1.80;;;0.50;99.90;;;;;;5071458;28;20202;-74
2021/12/03 03:26:09;;;;;;;4.83;2.07;;;0.50;99.90;;;;;;5070184;28;20208;-73
2021/12/03 03:28:36;;;;;;;5.63;2.23;;;0.50;99.90;;;;;;5058436;28;20211;-75
2021/12/03 03:31:02;;;;;;;8.57;1.80;;;0.50;99.90;;;;;;5050175;28;20234;-75
2021/12/03 03:33:28;;;;;;;6.77;2.13;;;0.50;99.90;;;;;;5049885;28;21502;-73
2021/12/03 03:35:54;;;;;;;6.97;2.30;;;0.50;99.90;;;;;;5050304;28;20206;-73
2021/12/03 03:38:20;;;;;;;4.17;2.13;;;0.40;99.90;;;;;;5050655;28;20216;-73
2021/12/03 03:40:46;;;;;;;6.07;2.13;;;0.40;99.90;;;;;;5049615;28;20286;-73
2021/12/03 03:43:13;;;;;;;3.60;2.23;;;0.50;99.90;;;;;;5050977;28;20667;-73
2021/12/03 03:45:40;;;;;;;9.17;2.30;;;0.40;99.90;;;;;;5049626;28;20295;-73
2021/12/03 03:48:06;;;;;;;6.43;2.37;;;0.40;99.90;;;;;;5051190;28;20188;-73
2021/12/03 03:50:31;;;;;;;6.70;2.07;;;0.50;99.90;;;;;;5049540;28;20207;-74
2021/12/03 03:52:57;;;;;;;5.40;1.90;;;0.50;99.90;;;;;;5050987;28;20212;-73
2021/12/03 03:55:24;;;;;;;6.83;2.40;;;0.50;99.90;;;;;;5050489;28;20228;-74
2021/12/03 03:57:52;;;;;;;11.07;2.70;;;0.50;99.90;;;;;;5050579;28;20203;-74
2021/12/03 04:00:26;;;;;;;3.60;1.83;;;0.50;99.90;;;;;;5050479;28;20181;-75
2021/12/03 04:02:51;;;;;;;4.87;2.13;;;0.50;99.90;;;;;;5050092;28;20182;-74
2021/12/03 04:05:17;;;;;;;9.30;2.47;;;0.50;99.90;;;;;;5050903;28;20215;-74
2021/12/03 04:07:43;;;;;;;4.73;2.37;;;0.60;99.90;;;;;;5049027;28;20217;-74
2021/12/03 04:10:10;;;;;;;4.40;2.10;;;0.60;99.90;;;;;;5050658;28;20214;-74
2021/12/03 04:12:36;;;;;;;7.10;2.60;;;0.60;99.90;;;;;;5050629;28;20818;-73
2021/12/03 04:15:03;;;;;;;7.53;2.63;;;0.60;99.90;;;;;;5051202;28;20359;-74
2021/12/03 04:17:29;;;;;;;4.13;2.60;;;0.60;99.90;;;;;;5050619;28;20211;-73
2021/12/03 04:19:54;;;;;;;7.00;3.43;;;0.60;99.90;;;;;;5049887;28;20202;-73
2021/12/03 04:22:24;;;;;;;7.47;2.50;;;0.60;99.90;;;;;;5050714;28;20227;-73
2021/12/03 04:24:51;;;;;;;5.90;2.73;;;0.70;99.90;;;;;;5049158;28;20223;-74
2021/12/03 04:27:17;;;;;;;5.20;2.00;;;0.70;99.90;;;;;;5050695;28;20179;-73
2021/12/03 04:29:43;;;;;;;4.50;2.10;;;0.70;99.90;;;;;;5051411;28;20256;-73
2021/12/03 04:32:09;;;;;;;3.23;2.13;;;0.70;99.90;;;;;;5049435;28;20217;-73
2021/12/03 04:34:35;;;;;;;4.33;2.40;;;0.70;99.90;;;;;;5050299;28;20625;-73
2021/12/03 04:37:01;;;;;;;8.80;3.00;;;0.70;99.90;;;;;;5050253;28;20217;-73
2021/12/03 04:39:27;;;;;;;6.03;2.50;;;0.70;99.90;;;;;;5050004;28;20187;-74
2021/12/03 04:41:52;;;;;;;6.40;2.10;;;0.60;99.90;;;;;;5049723;28;20223;-74
2021/12/03 04:44:18;;;;;;;5.33;2.33;;;0.60;99.90;;;;;;5050408;28;20218;-73
2021/12/03 04:46:43;;;;;;;7.57;2.07;;;0.60;99.90;;;;;;5050292;28;20629;-73
2021/12/03 04:49:09;;;;;;;4.37;2.20;;;0.60;99.90;;;;;;5050174;28;20597;-73
2021/12/03 04:51:35;;;;;;;5.90;1.97;;;0.60;99.90;;;;;;5050010;28;20208;-72
2021/12/03 04:54:01;;;;;;;2.43;1.63;;;0.60;99.90;;;;;;5050744;28;20213;-73
2021/12/03 04:56:27;;;;;;;3.47;1.80;;;0.60;99.90;;;;;;5049014;28;20216;-73
2021/12/03 04:58:52;;;;;;;6.63;2.70;;;0.60;99.90;;;;;;5047783;28;20214;-73
2021/12/03 05:01:18;;;;;;;8.57;1.93;;;0.60;99.90;;;;;;5046493;28;20236;-73
2021/12/03 05:03:43;;;;;;;6.37;2.03;;;0.60;99.90;;;;;;5048639;28;20678;-73
2021/12/03 05:06:14;;;;;;;6.00;1.90;;;0.60;99.90;;;;;;5050178;28;20596;-73
2021/12/03 05:08:39;;;;;;;10.30;2.47;;;0.60;99.90;;;;;;5050336;28;20181;-73
2021/12/03 05:11:05;;;;;;;4.57;2.53;;;0.60;99.90;;;;;;5050137;28;20268;-73
2021/12/03 05:13:33;;;;;;;6.00;2.17;;;0.50;99.90;;;;;;5050040;28;20215;-74
2021/12/03 05:16:00;;;;;;;4.30;1.80;;;0.50;99.90;;;;;;5048857;28;20219;-73
2021/12/03 05:18:27;;;;;;;4.23;2.10;;;0.50;99.90;;;;;;5049904;28;20527;-74
2021/12/03 05:20:54;;;;;;;5.10;2.47;;;0.50;99.90;;;;;;5050480;28;20361;-74
2021/12/03 05:23:21;;;;;;;7.00;2.30;;;0.50;99.90;;;;;;5048900;28;20239;-74
2021/12/03 05:25:47;;;;;;;4.83;2.53;;;0.50;99.90;;;;;;5040780;28;20682;-73
2021/12/03 05:28:14;;;;;;;4.33;2.13;;;0.50;99.90;;;;;;5048413;28;20222;-73
2021/12/03 05:30:39;;;;;;;4.47;2.53;;;0.50;99.90;;;;;;5050190;28;20210;-74
2021/12/03 05:33:06;;;;;;;4.20;2.20;;;0.50;99.90;;;;;;5053060;28;20186;-73
2021/12/03 05:35:32;;;;;;;3.27;2.07;;;0.50;99.90;;;;;;5052779;28;20643;-76
2021/12/03 05:37:58;;;;;;;7.47;2.27;;;0.50;99.90;;;;;;5051349;28;20271;-73
2021/12/03 05:40:23;;;;;;;6.40;2.30;;;0.50;99.90;;;;;;5057952;28;20690;-73
2021/12/03 05:42:50;;;;;;;4.70;2.13;;;0.50;99.90;;;;;;5072077;28;20282;-73
2021/12/03 05:45:22;;;;;;;6.03;2.30;;;0.50;99.90;;;;;;5073326;28;20790;-73
2021/12/03 05:47:48;;;;;;;4.57;2.07;;;0.50;99.90;;;;;;5057848;28;20178;-73
2021/12/03 05:50:15;;;;;;;8.73;2.50;;;0.50;99.90;;;;;;5072163;28;20210;-73
2021/12/03 05:52:41;;;;;;;5.60;2.27;;;0.50;99.90;;;;;;5073027;28;20584;-75
2021/12/03 05:55:07;;;;;;;9.33;2.47;;;0.50;99.90;;;;;;5072887;28;20222;-73
2021/12/03 05:57:33;;;;;;;6.23;2.40;;;0.50;99.90;;;;;;5072944;28;20679;-74
2021/12/03 05:59:59;;;;;;;4.77;2.20;;;0.40;99.90;;;;;;5073352;28;20253;-73
2021/12/03 06:02:24;;;;;;;4.67;2.43;;;0.40;99.90;;;;;;5071678;28;20207;-73
2021/12/03 06:04:50;;;;;;;7.20;2.47;;;0.50;99.90;;;;;;5071620;28;20216;-73
2021/12/03 06:07:15;;;;;;;5.50;2.40;;;0.40;99.90;;;;;;5072729;28;20212;-75
2021/12/03 06:09:42;;;;;;;5.07;2.57;;;0.50;99.90;;;;;;5059979;28;20209;-73
2021/12/03 06:12:09;;;;;;;4.60;2.40;;;0.40;99.90;;;;;;5073143;28;20187;-74
2021/12/03 06:14:34;;;;;;;5.97;2.33;;;0.40;99.90;;;;;;5071782;28;20255;-74
2021/12/03 06:17:00;;;;;;;6.83;2.50;;;0.40;99.90;;;;;;5072729;28;20218;-72
2021/12/03 06:19:25;;;;;;;7.57;3.70;;;0.50;99.90;;;;;;5071249;28;20574;-73
2021/12/03 06:21:51;;;;;;;9.23;3.00;;;0.40;99.90;;;;;;5071353;28;20209;-74
2021/12/03 06:24:17;;;;;;;6.90;3.57;;;0.40;99.90;;;;;;5072450;28;20677;-75
2021/12/03 06:26:42;;;;;;;11.13;3.07;;;0.40;99.90;;;;;;5072871;28;20175;-73
2021/12/03 06:29:08;;;;;;;6.60;2.50;;;0.50;99.90;;;;;;5071011;28;20230;-73
2021/12/03 06:31:33;;;;;;;7.60;2.43;;;0.50;99.90;;;;;;5070915;28;20214;-73
2021/12/03 06:34:00;;;;;;;5.50;2.60;;;0.50;99.90;;;;;;5073653;28;20218;-73
2021/12/03 06:36:26;;;;;;;6.37;3.00;;;0.50;99.90;;;;;;5072055;28;20253;-72
2021/12/03 06:38:52;;;;;;;6.13;3.57;;;0.50;99.90;;;;;;5067704;28;20180;-73
2021/12/03 06:41:17;;;;;;;11.83;3.43;;;0.50;99.90;;;;;;5062637;28;20210;-73
2021/12/03 06:43:43;;;;;;;9.67;3.27;;;0.50;99.90;;;;;;5070243;28;20211;-73
2021/12/03 06:46:08;;;;;;;6.43;3.30;;;0.50;99.90;;;;;;5070867;28;20236;-74
2021/12/03 06:48:34;;;;;;;8.30;3.50;;;0.50;99.90;;;;;;5070220;28;20209;-73
2021/12/03 06:51:00;;;;;;;6.43;3.33;;;0.50;99.90;;;;;;5071091;28;20177;-73
2021/12/03 06:53:31;;;;;;;7.90;3.40;;;0.50;99.90;;;;;;5071848;28;20265;-73
2021/12/03 06:56:04;;;;;;;6.93;3.50;;;0.60;99.90;;;;;;5070168;28;20222;-73
2021/12/03 06:58:29;;;;;;;6.80;3.30;;;0.60;99.90;;;;;;5070180;28;20211;-75
2021/12/03 07:00:56;;;;;;;8.57;4.03;;;0.70;99.90;;;;;;5071765;28;20271;-73
2021/12/03 07:03:22;;;;;;;5.77;3.37;;;0.70;99.90;;;;;;5071563;28;20198;-73
2021/12/03 07:05:48;;;;;;;9.07;3.67;;;0.70;99.90;;;;;;5072146;28;20197;-74
2021/12/03 07:08:14;;;;;;;12.60;4.27;;;0.70;99.90;;;;;;5069915;28;20207;-73
2021/12/03 07:10:39;;;;;;;10.83;4.17;;;0.80;99.90;;;;;;5054369;28;20291;-73
2021/12/03 07:13:05;;;;;;;8.23;3.83;;;0.80;99.90;;;;;;5055473;28;20225;-73
2021/12/03 07:15:31;;;;;;;11.67;3.77;;;0.90;99.90;;;;;;5071334;28;20207;-73
2021/12/03 07:17:57;;;;;;;7.97;3.80;;;0.90;99.90;;;;;;5070209;28;20560;-73
2021/12/03 07:20:24;;;;;;;12.93;4.00;;;1.00;99.90;;;;;;5071313;28;20225;-73
2021/12/03 07:22:50;;;;;;;9.50;3.60;;;1.10;99.90;;;;;;5071278;28;20206;-73
2021/12/03 07:25:16;;;;;;;9.37;4.70;;;1.10;99.90;;;;;;5071227;28;20719;-73
2021/12/03 07:27:42;;;;;;;8.87;3.77;;;1.20;99.90;;;;;;5071148;28;20677;-73
2021/12/03 07:30:10;;;;;;;9.23;3.80;;;1.30;99.90;;;;;;5071215;28;20180;-73
2021/12/03 07:32:38;;;;;;;10.20;4.27;;;1.30;99.90;;;;;;5071487;28;20182;-74
2021/12/03 07:35:04;;;;;;;6.03;3.67;;;1.40;99.90;;;;;;5071035;28;20297;-73
2021/12/03 07:37:30;;;;;;;7.43;3.97;;;1.40;99.90;;;;;;5070938;28;20217;-73
2021/12/03 07:39:57;;;;;;;7.50;3.80;;;1.50;99.90;;;;;;5056844;28;20206;-74
2021/12/03 07:42:22;;;;;;;7.43;3.73;;;1.50;99.90;;;;;;5060599;28;20756;-73
2021/12/03 07:44:48;;;;;;;8.97;4.13;;;1.50;99.90;;;;;;5062365;28;20218;-75
2021/12/03 07:47:13;;;;;;;7.37;4.20;;;1.60;99.90;;;;;;5065205;28;20255;-74
2021/12/03 07:49:40;;;;;;;11.73;4.07;;;1.60;99.90;;;;;;5065095;28;20245;-74
2021/12/03 07:52:06;;;;;;;9.20;3.63;;;1.60;99.90;;;;;;5068725;28;20227;-74
2021/12/03 07:54:32;;;;;;;9.33;4.13;;;1.80;99.90;;;;;;5049043;28;20247;-72
2021/12/03 07:56:57;;;;;;;8.77;4.67;;;1.90;99.90;;;;;;5071214;28;20179;-74
2021/12/03 07:59:23;;;;;;;7.23;4.13;;;1.90;99.90;;;;;;5057679;28;20222;-74
2021/12/03 08:01:48;;;;;;;8.97;4.70;;;2.00;99.90;;;;;;5065473;28;20207;-74
2021/12/03 08:04:15;;;;;;;9.53;4.63;;;2.00;99.90;;;;;;5070319;28;20219;-73
2021/12/03 08:06:42;;;;;;;7.67;3.90;;;1.90;99.90;;;;;;5067685;28;20239;-74
2021/12/03 08:09:08;;;;;;;11.47;4.83;;;2.00;99.90;;;;;;5061070;28;20672;-74
2021/12/03 08:11:36;;;;;;;10.90;3.97;;;2.00;99.90;;;;;;5060191;28;20238;-73
2021/12/03 08:14:01;;;;;;;11.53;4.90;;;2.00;99.90;;;;;;5062733;28;20243;-73
2021/12/03 08:16:27;;;;;;;8.90;4.07;;;2.00;99.90;;;;;;5066982;28;20284;-74
2021/12/03 08:18:52;;;;;;;8.70;4.77;;;2.10;99.90;;;;;;5057512;28;20211;-73
2021/12/03 08:21:18;;;;;;;7.97;4.43;;;2.00;99.90;;;;;;5066178;28;20179;-74
2021/12/03 08:23:43;;;;;;;8.03;4.93;;;2.10;99.90;;;;;;5050572;28;20209;-73
2021/12/03 08:26:09;;;;;;;7.13;4.50;;;2.10;99.90;;;;;;5067914;28;20223;-73
2021/12/03 08:28:34;;;;;;;7.83;4.27;;;2.10;99.90;;;;;;5068961;28;20217;-73
2021/12/03 08:31:00;;;;;;;11.20;5.70;;;2.00;99.90;;;;;;5050767;28;20227;-73
2021/12/03 08:33:26;;;;;;;9.73;4.57;;;2.10;99.90;;;;;;5056215;28;20232;-75
2021/12/03 08:35:52;;;;;;;7.10;3.57;;;2.10;99.90;;;;;;5069704;28;20198;-74
2021/12/03 08:38:17;;;;;;;7.60;3.87;;;2.20;99.90;;;;;;5058433;28;20221;-73
2021/12/03 08:40:43;;;;;;;12.53;4.93;;;2.20;99.90;;;;;;5057452;28;20688;-74
2021/12/03 08:43:10;;;;;;;6.83;3.83;;;2.30;99.90;;;;;;5065129;28;20231;-73
2021/12/03 08:45:37;;;;;;;16.00;5.20;;;2.30;99.90;;;;;;5067349;28;20222;-73
2021/12/03 08:48:04;;;;;;;8.00;4.60;;;2.30;99.90;;;;;;5070763;28;20175;-73
2021/12/03 08:50:33;;;;;;;8.47;4.73;;;2.40;99.90;;;;;;5068190;28;20687;-73
2021/12/03 08:55:44;;;;;;;9.30;4.00;;;2.60;99.90;;;;;;5061541;28;20655;-73
2021/12/03 08:58:11;;;;;;;8.07;4.27;;;2.60;99.90;;;;;;5058439;28;20235;-73
2021/12/03 09:00:37;;;;;;;7.57;3.90;;;2.70;99.90;;;;;;5068883;28;20223;-74
2021/12/03 09:03:05;;;;;;;7.77;4.57;;;2.90;99.90;;;;;;5060223;28;20179;-73
2021/12/03 09:05:34;;;;;;;7.67;4.77;;;3.00;99.90;;;;;;5067522;28;20239;-73
2021/12/03 09:08:00;;;;;;;5.97;3.07;;;3.20;99.90;;;;;;5067499;28;20268;-73
2021/12/03 09:10:26;;;;;;;6.83;4.00;;;3.20;99.90;;;;;;5060941;28;20712;-73
2021/12/03 09:12:52;;;;;;;5.37;3.60;;;3.20;99.90;;;;;;5074058;28;20290;-74
2021/12/03 09:15:24;;;;;;;6.97;3.63;;;3.10;99.90;;;;;;5071784;28;20211;-73
2021/12/03 09:18:19;;;;;;;7.07;3.40;;;3.10;99.90;;;;;;5068882;28;20190;-73
2021/12/03 09:20:48;;;;;;;6.67;3.13;;;3.20;99.90;;;;;;5073281;28;20218;-73
2021/12/03 09:26:04;;;;;;;8.20;3.90;;;3.20;99.90;;;;;;5059144;28;20213;-73
2021/12/03 09:28:30;;;;;;;7.40;3.60;;;3.20;99.90;;;;;;5071701;28;20593;-73
2021/12/03 09:30:56;;;;;;;7.80;3.40;;;3.30;99.90;;;;;;5070773;28;20687;-74
2021/12/03 09:33:26;;;;;;;10.07;4.33;;;3.40;99.90;;;;;;5072462;28;20240;-74
2021/12/03 09:35:55;;;;;;;7.23;3.63;;;3.50;99.90;;;;;;5062337;28;20200;-73
2021/12/03 09:38:21;;;;;;;6.73;3.53;;;3.60;99.90;;;;;;5069580;28;20215;-75
2021/12/03 09:40:47;;;;;;;6.87;3.83;;;3.70;99.90;;;;;;5060945;28;20725;-74
2021/12/03 09:43:13;;;;;;;7.60;3.93;;;3.70;99.90;;;;;;5068996;28;20219;-74
2021/12/03 09:45:41;;;;;;;9.23;3.57;;;3.70;99.90;;;;;;5073353;28;20215;-75
2021/12/03 09:48:28;;;;;;;7.33;3.20;;;3.80;99.90;;;;;;5068115;28;20194;-74
2021/12/03 09:50:54;;;;;;;7.27;2.83;;;3.80;99.90;;;;;;5046108;28;20773;-73
2021/12/03 09:53:45;;;;;;;6.30;3.17;;;4.00;99.90;;;;;;5047996;28;20203;-74
2021/12/03 09:56:05;;;;;;;6.33;3.17;;;4.40;99.90;;;;;;5064290;28;20221;-76
2021/12/03 10:01:17;;;;;;;5.93;2.97;;;4.60;99.90;;;;;;5054943;28;20746;-76
2021/12/03 10:03:54;;;;;;;8.17;3.20;;;4.40;99.90;;;;;;5051697;28;20244;-76
2021/12/03 10:12:32;;;;;;;13.27;3.90;;;4.30;99.90;;;;;;5065157;28;20179;-78
2021/12/03 10:15:38;;;;;;;9.70;3.43;;;4.50;99.90;;;;;;5073992;28;20194;-74
2021/12/03 10:18:10;;;;;;;8.33;3.13;;;4.50;99.90;;;;;;5058343;28;20236;-75
2021/12/03 10:20:53;;;;;;;8.47;3.37;;;4.50;99.90;;;;;;5068224;28;20222;-75
2021/12/03 10:24:04;;;;;;;9.87;3.20;;;4.50;99.90;;;;;;5058442;28;20755;-77
2021/12/03 10:29:13;;;;;;;7.80;2.80;;;4.70;99.90;;;;;;5046342;28;20222;-74
2021/12/03 10:37:48;;;;;;;9.83;3.27;;;4.50;99.90;;;;;;5072153;28;20217;-74
2021/12/03 10:41:14;;;;;;;8.53;3.37;;;4.50;99.90;;;;;;5049767;28;20283;-74
2021/12/03 10:46:20;;;;;;;7.07;2.60;;;4.70;99.90;;;;;;5058648;28;20290;-75
2021/12/03 10:49:44;;;;;;;6.77;3.17;;;4.70;99.90;;;;;;5071861;28;20693;-75
2021/12/03 10:52:21;;;;;;;7.23;3.60;;;4.70;99.90;;;;;;5062474;28;20293;-75
2021/12/03 10:55:21;;;;;;;9.80;2.73;;;4.70;99.90;;;;;;5062334;28;20213;-75
2021/12/03 11:03:10;;;;;;;4.83;2.73;;;4.90;99.90;;;;;;5072396;28;20172;-74
2021/12/03 11:10:56;;;;;;;6.67;3.00;;;5.00;99.90;;;;;;5071475;28;20267;-75
2021/12/03 11:25:27;;;;;;;4.43;2.77;;;4.40;99.90;;;;;;5055800;28;20210;-75
2021/12/03 11:38:37;;;;;;;6.67;3.23;;;4.50;99.90;;;;;;5070852;28;20216;-75
2021/12/03 11:41:56;;;;;;;5.57;3.27;;;4.50;99.90;;;;;;5058918;28;20317;-75
2021/12/03 12:01:43;;;;;;;10.47;4.10;;;4.70;99.90;;;;;;5070503;28;20205;-75
2021/12/03 12:35:50;;;;;;;7.87;3.17;;;4.30;99.90;;;;;;5060933;28;20244;-75
2021/12/03 13:03:35;;;;;;;7.23;3.33;;;4.50;99.90;;;;;;5073533;28;20229;-74
2021/12/03 13:19:17;;;;;;;10.20;3.30;;;4.40;99.90;;;;;;5057070;28;20234;-71
2021/12/03 13:25:08;;;;;;;7.00;3.00;;;4.30;99.90;;;;;;5067653;28;20218;-73
2021/12/03 13:28:10;;;;;;;6.30;3.10;;;4.30;99.90;;;;;;5072914;28;20200;-75
2021/12/03 13:31:34;;;;;;;8.67;3.37;;;4.30;99.90;;;;;;5063653;28;20179;-71
2021/12/03 13:37:05;;;;;;;7.53;3.50;;;4.30;99.90;;;;;;5052966;28;20871;-77
2021/12/03 14:09:24;;;;;;;8.37;4.43;;;4.00;99.90;;;;;;5052914;28;20332;-77
2021/12/03 14:36:52;;;;;;;10.87;6.03;;;3.60;99.90;;;;;;5072496;28;20185;-76
2021/12/03 14:39:38;;;;;;;10.13;5.93;;;3.60;99.90;;;;;;5051201;28;20176;-77
2021/12/03 14:45:35;;;;;;;14.77;6.60;;;3.50;99.90;;;;;;5055722;28;20201;-76
2021/12/03 14:48:05;;;;;;;12.87;5.70;;;3.50;99.90;;;;;;5063801;28;20210;-75
2021/12/03 14:56:06;;;;;;;11.67;6.90;;;3.50;99.90;;;;;;5058868;28;20218;-76
2021/12/03 15:07:05;;;;;;;13.87;6.43;;;3.50;99.90;;;;;;5028608;28;20204;-76
2021/12/03 15:09:33;;;;;;;13.00;6.40;;;3.40;99.90;;;;;;5058325;28;20211;-77
2021/12/03 15:15:02;;;;;;;11.90;6.23;;;3.40;99.90;;;;;;5071082;28;20588;-76
2021/12/03 15:28:36;;;;;;;12.00;6.00;;;3.50;99.90;;;;;;5026320;28;20218;-73
2021/12/03 15:31:03;;;;;;;16.30;7.07;;;3.50;99.90;;;;;;5031105;28;20207;-73
2021/12/03 16:03:40;;;;;;;8.70;5.83;;;3.40;99.90;;;;;;4995648;28;20584;-71
2021/12/03 16:08:20;;;;;;;14.47;6.03;;;3.40;99.90;;;;;;5010786;28;20247;-72
2021/12/03 16:18:57;;;;;;;11.57;6.23;;;3.40;99.90;;;;;;5010093;28;20663;-71
2021/12/03 16:24:30;;;;;;;10.10;5.57;;;3.30;99.90;;;;;;5011727;28;20213;-72
2021/12/03 16:27:10;;;;;;;7.33;5.23;;;3.30;99.90;;;;;;5010949;28;20280;-71
2021/12/03 16:53:48;;;;;;;10.87;5.50;;;3.20;99.90;;;;;;4992998;28;20253;-71
2021/12/03 16:56:24;;;;;;;9.40;5.43;;;3.20;99.90;;;;;;5009550;28;20220;-72
2021/12/03 16:58:50;;;;;;;10.13;5.70;;;3.20;99.90;;;;;;5010380;28;20227;-71
2021/12/03 17:01:33;;;;;;;9.60;5.70;;;3.30;99.90;;;;;;5009026;28;20256;-73
2021/12/03 17:04:18;;;;;;;10.23;5.83;;;3.30;99.90;;;;;;4997854;28;20220;-75
2021/12/03 17:07:28;;;;;;;10.30;5.27;;;3.30;99.90;;;;;;5009174;28;20299;-73
2021/12/03 17:12:18;;;;;;;12.40;5.67;;;3.30;99.90;;;;;;5010830;28;20329;-72
2021/12/03 17:14:59;;;;;;;11.73;6.13;;;3.20;99.90;;;;;;5011028;28;20174;-74
2021/12/03 17:20:47;;;;;;;7.87;5.00;;;3.20;99.90;;;;;;5005862;28;20235;-74
2021/12/03 17:52:51;;;;;;;11.30;4.27;;;3.30;99.90;;;;;;5013911;28;20592;-75
2021/12/03 17:58:09;;;;;;;8.30;4.40;;;3.30;99.90;;;;;;4999773;28;20332;-73
2021/12/03 18:01:20;;;;;;;8.00;4.73;;;3.30;99.90;;;;;;5018461;28;20207;-74
2021/12/03 18:06:28;;;;;;;8.93;4.37;;;3.20;99.90;;;;;;5015276;28;20211;-73
2021/12/03 18:09:06;;;;;;;6.33;4.07;;;3.20;99.90;;;;;;5011709;28;20207;-75
2021/12/03 18:17:09;;;;;;;6.07;3.93;;;3.20;99.90;;;;;;5015332;28;20307;-73
2021/12/03 18:44:42;;;;;;;9.03;4.70;;;3.20;99.90;;;;;;5008413;28;20319;-74
2021/12/03 18:52:34;;;;;;;9.40;5.07;;;3.10;99.90;;;;;;5008762;28;20248;-75
2021/12/03 18:55:03;;;;;;;10.67;5.17;;;3.10;99.90;;;;;;5002973;28;20213;-76
2021/12/03 18:57:32;;;;;;;13.47;5.20;;;3.10;99.90;;;;;;5016679;28;20674;-76
2021/12/03 19:00:02;;;;;;;8.63;5.40;;;3.10;99.90;;;;;;5008983;28;20612;-76
2021/12/03 19:02:28;;;;;;;11.73;5.23;;;3.10;99.90;;;;;;5031490;28;20205;-74
2021/12/03 19:05:05;;;;;;;10.17;5.80;;;3.10;99.90;;;;;;5014912;28;20201;-74
2021/12/03 19:07:57;;;;;;;10.10;5.10;;;3.00;99.90;;;;;;5012565;28;20210;-73
2021/12/03 19:10:22;;;;;;;9.53;5.10;;;3.00;99.90;;;;;;5008198;28;20205;-74
2021/12/03 19:13:06;;;;;;;9.23;5.87;;;3.00;99.90;;;;;;5014954;28;20209;-75
2021/12/03 19:15:33;;;;;;;9.63;5.00;;;3.00;99.90;;;;;;5013680;28;20209;-74
2021/12/03 19:18:02;;;;;;;8.30;5.17;;;3.00;99.90;;;;;;5014706;28;20172;-74
2021/12/03 19:20:32;;;;;;;10.53;5.63;;;3.00;99.90;;;;;;5014741;28;20284;-75
2021/12/03 19:22:58;;;;;;;8.23;5.43;;;3.00;99.90;;;;;;5015640;28;20211;-75
2021/12/03 19:25:23;;;;;;;8.57;5.10;;;3.10;99.90;;;;;;5015548;28;20286;-76
2021/12/03 19:27:49;;;;;;;9.43;5.50;;;3.10;99.90;;;;;;5012613;28;20215;-75